PWSweather.com
Personal Weather Stations
Station Observations

AwhituWaiuku, CA 268400

Lat: -37.058, Lon: -174.6346

Elevation: 250

Station Type: Personal

http://www.weather-display.com/windy/gb/grahamsbeach.htm

High Low Average
Temperature 61.5°F16.4°F 45.1°F7.3°F 51.2°F10.7°F
Dew Point 52.5°F11.4°F 43.5°F6.4°F 47.3°F8.5°F
Winds 8.1 mph SW13.0 mph SW Calm Calm 0.8 mph 1.3 mph
Wind Gusts 10.4 mph16.7 mph -- 1.2 mph1.9 mph
Humidity 96% 66% 87%
Pressure 30.26 in1024.70 in 30.20 in1022.70 in -
Precipitation 0.02 in0.50 in - -
Hour Temp Dew Point Humidity Winds Wind Gusts Pressure Precip Precip Rate Daily Precip Total
12:00 AM 50.0°F10.0°C 47.5°F8.6°C 91% Calm Calm -- 30.21 in1023.0 mb - 0.00 in0.0 mm 0.00 in0.0 mm
12:30 AM 50.3°F10.2°C 47.8°F8.8°C 91% Calm Calm -- 30.21 in1023.0 mb - 0.00 in0.0 mm 0.00 in0.0 mm
01:00 AM 50.0°F10.0°C 47.8°F8.8°C 92% Calm Calm -- 30.21 in1023.0 mb - 0.01 in0.3 mm 0.01 in0.3 mm
01:30 AM 50.1°F10.1°C 47.9°F8.8°C 92% Calm Calm -- 30.21 in1023.0 mb - 0.00 in0.0 mm 0.01 in0.3 mm
02:00 AM 49.9°F9.9°C 47.7°F8.7°C 92% Calm Calm -- 30.21 in1023.0 mb - 0.00 in0.0 mm 0.01 in0.3 mm
02:30 AM 49.7°F9.8°C 47.5°F8.6°C 92% Calm Calm -- 30.20 in1022.7 mb - 0.00 in0.0 mm 0.01 in0.3 mm
03:00 AM 49.6°F9.8°C 47.4°F8.6°C 92% Calm Calm -- 30.21 in1023.0 mb - 0.00 in0.0 mm 0.01 in0.3 mm
03:30 AM 49.5°F9.7°C 47.3°F8.5°C 92% Calm Calm -- 30.21 in1023.0 mb - 0.00 in0.0 mm 0.01 in0.3 mm
04:00 AM 49.0°F9.4°C 46.5°F8.1°C 91% Calm Calm -- 30.20 in1022.7 mb - 0.00 in0.0 mm 0.01 in0.3 mm
04:30 AM 48.4°F9.1°C 46.2°F7.9°C 92% Calm Calm -- 30.20 in1022.7 mb - 0.00 in0.0 mm 0.01 in0.3 mm
05:00 AM 47.8°F8.8°C 45.9°F7.7°C 93% Calm Calm -- 30.20 in1022.7 mb - 0.00 in0.0 mm 0.01 in0.3 mm
05:30 AM 46.9°F8.3°C 45.0°F7.2°C 93% Calm Calm -- 30.20 in1022.7 mb - 0.00 in0.0 mm 0.01 in0.3 mm
06:00 AM 46.4°F8.0°C 44.5°F6.9°C 93% Calm Calm -- 30.21 in1023.0 mb - 0.00 in0.0 mm 0.01 in0.3 mm
06:30 AM 45.8°F7.7°C 44.2°F6.8°C 94% Calm Calm -- 30.22 in1023.4 mb - 0.00 in0.0 mm 0.01 in0.3 mm
07:00 AM 45.2°F7.3°C 43.6°F6.4°C 94% Calm Calm -- 30.23 in1023.7 mb - 0.00 in0.0 mm 0.01 in0.3 mm
07:30 AM 45.1°F7.3°C 43.5°F6.4°C 94% Calm Calm -- 30.23 in1023.7 mb - 0.00 in0.0 mm 0.01 in0.3 mm
08:00 AM 45.1°F7.3°C 43.8°F6.6°C 95% Calm Calm -- 30.24 in1024.0 mb - 0.00 in0.0 mm 0.01 in0.3 mm
08:30 AM 45.8°F7.7°C 44.4°F6.9°C 95% Calm Calm -- 30.25 in1024.4 mb - 0.00 in0.0 mm 0.01 in0.3 mm
09:00 AM 46.1°F7.8°C 44.8°F7.1°C 95% Calm Calm -- 30.25 in1024.4 mb - 0.01 in0.3 mm 0.02 in0.5 mm
09:30 AM 50.7°F10.4°C 49.6°F9.8°C 96% Calm Calm -- 30.25 in1024.4 mb - 0.00 in0.0 mm 0.02 in0.5 mm
10:00 AM 51.7°F10.9°C 49.7°F9.8°C 93% 3.5 mph E5.6 kmh E 3.5 mph5.6 kmh 30.26 in1024.7 mb - 0.00 in0.0 mm 0.02 in0.5 mm
10:30 AM 53.4°F11.9°C 50.5°F10.3°C 90% Calm Calm -- 30.26 in1024.7 mb - 0.00 in0.0 mm 0.02 in0.5 mm
11:00 AM 56.4°F13.6°C 51.6°F10.9°C 84% Calm Calm -- 30.26 in1024.7 mb - 0.00 in0.0 mm 0.02 in0.5 mm
11:30 AM 55.7°F13.2°C 49.3°F9.6°C 79% Calm Calm -- 30.25 in1024.4 mb - 0.00 in0.0 mm 0.02 in0.5 mm
12:00 PM 55.9°F13.3°C 50.5°F10.3°C 82% Calm Calm -- 30.24 in1024.0 mb - 0.00 in0.0 mm 0.02 in0.5 mm
12:30 PM 55.7°F13.2°C 49.9°F9.9°C 81% Calm Calm -- 30.23 in1023.7 mb - 0.00 in0.0 mm 0.02 in0.5 mm
01:00 PM 59.3°F15.2°C 52.5°F11.4°C 78% Calm Calm -- 30.22 in1023.4 mb - 0.00 in0.0 mm 0.02 in0.5 mm
01:30 PM 61.4°F16.3°C 50.3°F10.2°C 67% Calm Calm -- 30.20 in1022.7 mb - 0.00 in0.0 mm 0.02 in0.5 mm
02:00 PM 61.4°F16.3°C 49.9°F9.9°C 66% 4.6 mph SW7.4 kmh SW 5.8 mph9.3 kmh 30.20 in1022.7 mb - 0.00 in0.0 mm 0.02 in0.5 mm
02:30 PM 61.5°F16.4°C 50.8°F10.4°C 68% 6.9 mph WSW11.1 kmh WSW 10.4 mph16.7 kmh 30.20 in1022.7 mb - 0.00 in0.0 mm 0.02 in0.5 mm
03:00 PM 60.7°F15.9°C 50.1°F10.1°C 68% 5.8 mph WSW9.3 kmh WSW 10.4 mph16.7 kmh 30.20 in1022.7 mb - 0.00 in0.0 mm 0.02 in0.5 mm
03:30 PM 59.5°F15.3°C 49.3°F9.6°C 69% 8.1 mph SW13.0 kmh SW 9.2 mph14.8 kmh 30.20 in1022.7 mb - 0.00 in0.0 mm 0.02 in0.5 mm
04:00 PM 59.4°F15.2°C 50.7°F10.4°C 73% 5.8 mph WSW9.3 kmh WSW 8.1 mph13.0 kmh 30.21 in1023.0 mb - 0.00 in0.0 mm 0.02 in0.5 mm
04:30 PM 58.6°F14.8°C 50.3°F10.2°C 74% 3.5 mph WSW5.6 kmh WSW 4.6 mph7.4 kmh 30.21 in1023.0 mb - 0.00 in0.0 mm 0.02 in0.5 mm
05:00 PM 57.2°F14.0°C 49.7°F9.8°C 76% 2.3 mph SW3.7 kmh SW 3.5 mph5.6 kmh 30.22 in1023.4 mb - 0.00 in0.0 mm 0.02 in0.5 mm
05:30 PM 54.1°F12.3°C 47.7°F8.7°C 79% Calm Calm -- 30.22 in1023.4 mb - 0.00 in0.0 mm 0.02 in0.5 mm
06:00 PM 52.2°F11.2°C 47.2°F8.4°C 83% Calm Calm -- 30.23 in1023.7 mb - 0.00 in0.0 mm 0.02 in0.5 mm
06:30 PM 50.7°F10.4°C 46.4°F8.0°C 85% Calm Calm -- 30.23 in1023.7 mb - 0.00 in0.0 mm 0.02 in0.5 mm
07:00 PM 49.5°F9.7°C 46.1°F7.8°C 88% Calm Calm -- 30.24 in1024.0 mb - 0.00 in0.0 mm 0.02 in0.5 mm
07:30 PM 48.5°F9.2°C 45.4°F7.4°C 89% Calm Calm -- 30.25 in1024.4 mb - 0.00 in0.0 mm 0.02 in0.5 mm
08:00 PM 48.2°F9.0°C 45.7°F7.6°C 91% Calm Calm -- 30.25 in1024.4 mb - 0.00 in0.0 mm 0.02 in0.5 mm
08:30 PM 47.1°F8.4°C 44.9°F7.2°C 92% Calm Calm -- 30.25 in1024.4 mb - 0.00 in0.0 mm 0.02 in0.5 mm
09:00 PM 46.5°F8.1°C 44.3°F6.8°C 92% Calm Calm -- 30.25 in1024.4 mb - 0.00 in0.0 mm 0.02 in0.5 mm
09:30 PM 46.7°F8.2°C 44.8°F7.1°C 93% Calm Calm -- 30.25 in1024.4 mb - 0.00 in0.0 mm 0.02 in0.5 mm
10:00 PM 46.9°F8.3°C 45.0°F7.2°C 93% Calm Calm -- 30.25 in1024.4 mb - 0.00 in0.0 mm 0.02 in0.5 mm
10:30 PM 46.2°F7.9°C 44.3°F6.8°C 93% Calm Calm -- 30.25 in1024.4 mb - 0.00 in0.0 mm 0.02 in0.5 mm
11:00 PM 46.7°F8.2°C 45.1°F7.3°C 94% Calm Calm -- 30.25 in1024.4 mb - 0.00 in0.0 mm 0.02 in0.5 mm
11:30 PM 46.1°F7.8°C 44.5°F6.9°C 94% Calm Calm -- 30.26 in1024.7 mb - 0.00 in0.0 mm 0.02 in0.5 mm